sensor_id;sensor_type;location;lat;lon;timestamp;P1;durP1;ratioP1;P2;durP2;ratioP2
52104;SDS011;38103;42.776;23.112;2023-01-09T00:02:00;57.92;;;31.77;;
52104;SDS011;38103;42.776;23.112;2023-01-09T00:04:25;65.75;;;33.08;;
52104;SDS011;38103;42.776;23.112;2023-01-09T00:06:51;53.10;;;30.10;;
52104;SDS011;38103;42.776;23.112;2023-01-09T00:09:20;63.25;;;31.63;;
52104;SDS011;38103;42.776;23.112;2023-01-09T00:11:47;57.80;;;30.90;;
52104;SDS011;38103;42.776;23.112;2023-01-09T00:14:14;54.95;;;30.63;;
52104;SDS011;38103;42.776;23.112;2023-01-09T00:16:39;59.63;;;31.05;;
52104;SDS011;38103;42.776;23.112;2023-01-09T00:19:05;56.95;;;31.02;;
52104;SDS011;38103;42.776;23.112;2023-01-09T00:21:30;54.95;;;28.70;;
52104;SDS011;38103;42.776;23.112;2023-01-09T00:23:56;52.72;;;28.75;;
52104;SDS011;38103;42.776;23.112;2023-01-09T00:26:21;55.00;;;29.45;;
52104;SDS011;38103;42.776;23.112;2023-01-09T00:28:47;58.22;;;30.77;;
52104;SDS011;38103;42.776;23.112;2023-01-09T00:31:14;60.53;;;32.65;;
52104;SDS011;38103;42.776;23.112;2023-01-09T00:33:41;55.55;;;29.83;;
52104;SDS011;38103;42.776;23.112;2023-01-09T00:36:09;55.33;;;30.15;;
52104;SDS011;38103;42.776;23.112;2023-01-09T00:38:35;48.78;;;28.42;;
52104;SDS011;38103;42.776;23.112;2023-01-09T00:41:04;52.78;;;26.95;;
52104;SDS011;38103;42.776;23.112;2023-01-09T00:43:33;54.85;;;30.95;;
52104;SDS011;38103;42.776;23.112;2023-01-09T00:46:03;63.08;;;32.22;;
52104;SDS011;38103;42.776;23.112;2023-01-09T00:48:30;68.03;;;33.20;;
52104;SDS011;38103;42.776;23.112;2023-01-09T00:50:58;65.90;;;33.08;;
52104;SDS011;38103;42.776;23.112;2023-01-09T00:53:24;57.15;;;28.63;;
52104;SDS011;38103;42.776;23.112;2023-01-09T00:55:53;59.28;;;29.80;;
52104;SDS011;38103;42.776;23.112;2023-01-09T00:58:22;58.45;;;31.05;;
52104;SDS011;38103;42.776;23.112;2023-01-09T01:00:47;65.85;;;32.78;;
52104;SDS011;38103;42.776;23.112;2023-01-09T01:03:13;61.28;;;32.28;;
52104;SDS011;38103;42.776;23.112;2023-01-09T01:05:38;59.47;;;30.73;;
52104;SDS011;38103;42.776;23.112;2023-01-09T01:08:22;61.28;;;32.63;;
52104;SDS011;38103;42.776;23.112;2023-01-09T01:10:48;64.78;;;33.40;;
52104;SDS011;38103;42.776;23.112;2023-01-09T01:13:14;59.45;;;32.05;;
52104;SDS011;38103;42.776;23.112;2023-01-09T01:15:40;65.03;;;31.52;;
52104;SDS011;38103;42.776;23.112;2023-01-09T01:18:07;98.70;;;49.20;;
52104;SDS011;38103;42.776;23.112;2023-01-09T01:20:33;61.45;;;32.58;;
52104;SDS011;38103;42.776;23.112;2023-01-09T01:22:58;57.70;;;31.25;;
52104;SDS011;38103;42.776;23.112;2023-01-09T01:25:24;60.53;;;31.92;;
52104;SDS011;38103;42.776;23.112;2023-01-09T01:27:49;63.50;;;31.55;;
52104;SDS011;38103;42.776;23.112;2023-01-09T01:30:15;61.83;;;30.48;;
52104;SDS011;38103;42.776;23.112;2023-01-09T01:32:41;57.53;;;30.95;;
52104;SDS011;38103;42.776;23.112;2023-01-09T01:35:07;51.97;;;26.63;;
52104;SDS011;38103;42.776;23.112;2023-01-09T01:37:34;56.75;;;26.85;;
52104;SDS011;38103;42.776;23.112;2023-01-09T01:40:01;56.63;;;26.33;;
52104;SDS011;38103;42.776;23.112;2023-01-09T01:42:26;49.10;;;25.98;;
52104;SDS011;38103;42.776;23.112;2023-01-09T01:53:00;55.42;;;26.60;;
52104;SDS011;38103;42.776;23.112;2023-01-09T01:55:30;47.78;;;26.77;;
52104;SDS011;38103;42.776;23.112;2023-01-09T01:57:58;58.72;;;27.45;;
52104;SDS011;38103;42.776;23.112;2023-01-09T02:00:29;49.80;;;26.58;;
52104;SDS011;38103;42.776;23.112;2023-01-09T02:02:58;55.13;;;27.08;;
52104;SDS011;38103;42.776;23.112;2023-01-09T02:05:25;60.85;;;29.73;;
52104;SDS011;38103;42.776;23.112;2023-01-09T02:07:50;50.00;;;26.50;;
52104;SDS011;38103;42.776;23.112;2023-01-09T02:10:16;58.28;;;28.17;;
52104;SDS011;38103;42.776;23.112;2023-01-09T02:12:41;54.78;;;30.52;;
52104;SDS011;38103;42.776;23.112;2023-01-09T02:15:08;61.17;;;29.98;;
52104;SDS011;38103;42.776;23.112;2023-01-09T02:30:45;78.88;;;34.95;;
52104;SDS011;38103;42.776;23.112;2023-01-09T02:33:23;81.30;;;37.80;;
52104;SDS011;38103;42.776;23.112;2023-01-09T02:36:03;75.43;;;37.00;;
52104;SDS011;38103;42.776;23.112;2023-01-09T02:41:30;65.65;;;33.60;;
52104;SDS011;38103;42.776;23.112;2023-01-09T02:44:30;60.88;;;31.67;;
52104;SDS011;38103;42.776;23.112;2023-01-09T02:47:00;60.08;;;30.77;;
52104;SDS011;38103;42.776;23.112;2023-01-09T02:49:25;169.80;;;66.30;;
52104;SDS011;38103;42.776;23.112;2023-01-09T02:51:52;81.32;;;36.60;;
52104;SDS011;38103;42.776;23.112;2023-01-09T03:00:21;81.93;;;38.15;;
52104;SDS011;38103;42.776;23.112;2023-01-09T03:02:50;82.63;;;41.13;;
52104;SDS011;38103;42.776;23.112;2023-01-09T03:05:45;55.95;;;29.25;;
52104;SDS011;38103;42.776;23.112;2023-01-09T03:08:22;75.90;;;37.60;;
52104;SDS011;38103;42.776;23.112;2023-01-09T03:10:59;72.35;;;33.10;;
52104;SDS011;38103;42.776;23.112;2023-01-09T03:13:30;64.13;;;32.72;;
52104;SDS011;38103;42.776;23.112;2023-01-09T03:15:59;65.30;;;32.80;;
52104;SDS011;38103;42.776;23.112;2023-01-09T03:18:30;58.00;;;29.92;;
52104;SDS011;38103;42.776;23.112;2023-01-09T03:20:56;62.75;;;31.27;;
52104;SDS011;38103;42.776;23.112;2023-01-09T03:23:22;61.15;;;32.35;;
52104;SDS011;38103;42.776;23.112;2023-01-09T03:25:48;66.53;;;37.15;;
52104;SDS011;38103;42.776;23.112;2023-01-09T03:28:26;80.35;;;42.60;;
52104;SDS011;38103;42.776;23.112;2023-01-09T03:30:53;121.78;;;49.78;;
52104;SDS011;38103;42.776;23.112;2023-01-09T03:33:18;74.28;;;36.53;;
52104;SDS011;38103;42.776;23.112;2023-01-09T03:35:44;78.20;;;39.55;;
52104;SDS011;38103;42.776;23.112;2023-01-09T03:38:09;66.88;;;32.95;;
52104;SDS011;38103;42.776;23.112;2023-01-09T03:40:35;65.40;;;32.00;;
52104;SDS011;38103;42.776;23.112;2023-01-09T03:43:00;67.88;;;32.00;;
52104;SDS011;38103;42.776;23.112;2023-01-09T03:45:26;64.38;;;33.75;;
52104;SDS011;38103;42.776;23.112;2023-01-09T03:47:51;65.38;;;31.92;;
52104;SDS011;38103;42.776;23.112;2023-01-09T03:50:16;68.15;;;35.83;;
52104;SDS011;38103;42.776;23.112;2023-01-09T03:52:42;59.72;;;31.73;;
52104;SDS011;38103;42.776;23.112;2023-01-09T03:55:07;58.67;;;29.55;;
52104;SDS011;38103;42.776;23.112;2023-01-09T03:57:33;56.67;;;29.67;;
52104;SDS011;38103;42.776;23.112;2023-01-09T03:59:58;61.30;;;32.20;;
52104;SDS011;38103;42.776;23.112;2023-01-09T04:02:24;60.58;;;32.22;;
52104;SDS011;38103;42.776;23.112;2023-01-09T04:04:49;60.28;;;31.42;;
52104;SDS011;38103;42.776;23.112;2023-01-09T04:07:14;61.13;;;31.92;;
52104;SDS011;38103;42.776;23.112;2023-01-09T04:09:40;61.70;;;32.10;;
52104;SDS011;38103;42.776;23.112;2023-01-09T04:12:05;102.85;;;49.40;;
52104;SDS011;38103;42.776;23.112;2023-01-09T04:14:31;229.18;;;103.03;;
52104;SDS011;38103;42.776;23.112;2023-01-09T04:16:56;105.97;;;48.40;;
52104;SDS011;38103;42.776;23.112;2023-01-09T04:19:21;75.28;;;37.92;;
52104;SDS011;38103;42.776;23.112;2023-01-09T04:21:47;91.20;;;46.95;;
52104;SDS011;38103;42.776;23.112;2023-01-09T04:24:12;79.78;;;39.17;;
52104;SDS011;38103;42.776;23.112;2023-01-09T04:26:37;73.88;;;37.22;;
52104;SDS011;38103;42.776;23.112;2023-01-09T04:29:03;69.75;;;33.28;;
52104;SDS011;38103;42.776;23.112;2023-01-09T04:31:28;101.80;;;52.40;;
52104;SDS011;38103;42.776;23.112;2023-01-09T04:33:53;74.10;;;36.53;;
52104;SDS011;38103;42.776;23.112;2023-01-09T04:36:19;62.35;;;30.75;;
52104;SDS011;38103;42.776;23.112;2023-01-09T04:38:44;63.58;;;32.00;;
52104;SDS011;38103;42.776;23.112;2023-01-09T04:41:10;66.82;;;33.08;;
52104;SDS011;38103;42.776;23.112;2023-01-09T04:43:55;70.65;;;32.67;;
52104;SDS011;38103;42.776;23.112;2023-01-09T04:46:20;64.32;;;32.40;;
52104;SDS011;38103;42.776;23.112;2023-01-09T04:48:46;63.75;;;34.03;;
52104;SDS011;38103;42.776;23.112;2023-01-09T04:51:11;65.50;;;34.08;;
52104;SDS011;38103;42.776;23.112;2023-01-09T04:53:36;65.10;;;33.85;;
52104;SDS011;38103;42.776;23.112;2023-01-09T04:56:02;68.53;;;33.13;;
52104;SDS011;38103;42.776;23.112;2023-01-09T04:58:27;64.75;;;33.28;;
52104;SDS011;38103;42.776;23.112;2023-01-09T05:00:52;63.67;;;32.92;;
52104;SDS011;38103;42.776;23.112;2023-01-09T05:03:18;67.75;;;31.35;;
52104;SDS011;38103;42.776;23.112;2023-01-09T05:05:43;62.10;;;32.05;;
52104;SDS011;38103;42.776;23.112;2023-01-09T05:08:08;61.92;;;32.88;;
52104;SDS011;38103;42.776;23.112;2023-01-09T05:10:34;54.28;;;29.25;;
52104;SDS011;38103;42.776;23.112;2023-01-09T05:12:59;60.20;;;30.33;;
52104;SDS011;38103;42.776;23.112;2023-01-09T05:15:24;62.60;;;30.70;;
52104;SDS011;38103;42.776;23.112;2023-01-09T05:17:52;56.20;;;30.80;;
52104;SDS011;38103;42.776;23.112;2023-01-09T05:20:17;63.13;;;31.65;;
52104;SDS011;38103;42.776;23.112;2023-01-09T05:22:43;65.43;;;32.47;;
52104;SDS011;38103;42.776;23.112;2023-01-09T05:25:08;67.90;;;33.25;;
52104;SDS011;38103;42.776;23.112;2023-01-09T05:27:33;71.15;;;34.00;;
52104;SDS011;38103;42.776;23.112;2023-01-09T05:29:59;73.40;;;36.35;;
52104;SDS011;38103;42.776;23.112;2023-01-09T05:32:24;86.75;;;42.53;;
52104;SDS011;38103;42.776;23.112;2023-01-09T05:34:49;73.70;;;36.50;;
52104;SDS011;38103;42.776;23.112;2023-01-09T05:37:15;83.18;;;38.05;;
52104;SDS011;38103;42.776;23.112;2023-01-09T05:39:40;85.30;;;42.72;;
52104;SDS011;38103;42.776;23.112;2023-01-09T05:42:06;102.03;;;45.70;;
52104;SDS011;38103;42.776;23.112;2023-01-09T05:44:31;133.63;;;64.25;;
52104;SDS011;38103;42.776;23.112;2023-01-09T05:46:56;144.45;;;66.75;;
52104;SDS011;38103;42.776;23.112;2023-01-09T05:49:22;102.97;;;50.00;;
52104;SDS011;38103;42.776;23.112;2023-01-09T05:51:47;89.88;;;44.97;;
52104;SDS011;38103;42.776;23.112;2023-01-09T05:54:12;70.00;;;34.85;;
52104;SDS011;38103;42.776;23.112;2023-01-09T05:56:38;72.85;;;36.25;;
52104;SDS011;38103;42.776;23.112;2023-01-09T05:59:03;66.32;;;35.15;;
52104;SDS011;38103;42.776;23.112;2023-01-09T06:01:28;68.60;;;36.38;;
52104;SDS011;38103;42.776;23.112;2023-01-09T06:03:54;63.47;;;34.25;;
52104;SDS011;38103;42.776;23.112;2023-01-09T06:06:19;67.90;;;34.38;;
52104;SDS011;38103;42.776;23.112;2023-01-09T06:08:45;68.15;;;34.80;;
52104;SDS011;38103;42.776;23.112;2023-01-09T06:11:10;69.90;;;35.08;;
52104;SDS011;38103;42.776;23.112;2023-01-09T06:13:35;74.10;;;37.28;;
52104;SDS011;38103;42.776;23.112;2023-01-09T06:16:01;71.45;;;35.53;;
52104;SDS011;38103;42.776;23.112;2023-01-09T06:18:26;67.65;;;33.30;;
52104;SDS011;38103;42.776;23.112;2023-01-09T06:20:51;68.57;;;34.58;;
52104;SDS011;38103;42.776;23.112;2023-01-09T06:23:17;61.40;;;34.22;;
52104;SDS011;38103;42.776;23.112;2023-01-09T06:25:42;66.40;;;34.70;;
52104;SDS011;38103;42.776;23.112;2023-01-09T06:28:07;70.68;;;36.03;;
52104;SDS011;38103;42.776;23.112;2023-01-09T06:30:33;68.38;;;35.40;;
52104;SDS011;38103;42.776;23.112;2023-01-09T06:32:58;63.45;;;34.25;;
52104;SDS011;38103;42.776;23.112;2023-01-09T06:35:24;63.03;;;33.60;;
52104;SDS011;38103;42.776;23.112;2023-01-09T06:37:49;67.05;;;34.70;;
52104;SDS011;38103;42.776;23.112;2023-01-09T06:40:15;69.22;;;34.80;;
52104;SDS011;38103;42.776;23.112;2023-01-09T06:42:42;65.60;;;33.75;;
52104;SDS011;38103;42.776;23.112;2023-01-09T06:45:09;68.53;;;34.60;;
52104;SDS011;38103;42.776;23.112;2023-01-09T06:47:34;62.53;;;33.05;;
52104;SDS011;38103;42.776;23.112;2023-01-09T06:50:00;63.83;;;35.08;;
52104;SDS011;38103;42.776;23.112;2023-01-09T06:52:25;68.55;;;34.55;;
52104;SDS011;38103;42.776;23.112;2023-01-09T06:54:50;69.90;;;34.55;;
52104;SDS011;38103;42.776;23.112;2023-01-09T06:57:17;76.28;;;36.22;;
52104;SDS011;38103;42.776;23.112;2023-01-09T06:59:42;58.22;;;32.85;;
52104;SDS011;38103;42.776;23.112;2023-01-09T07:02:14;57.28;;;30.65;;
52104;SDS011;38103;42.776;23.112;2023-01-09T07:04:42;58.67;;;30.10;;
52104;SDS011;38103;42.776;23.112;2023-01-09T07:07:08;67.13;;;32.47;;
52104;SDS011;38103;42.776;23.112;2023-01-09T07:09:33;60.40;;;30.70;;
52104;SDS011;38103;42.776;23.112;2023-01-09T07:11:58;57.38;;;28.77;;
52104;SDS011;38103;42.776;23.112;2023-01-09T07:14:24;56.67;;;30.48;;
52104;SDS011;38103;42.776;23.112;2023-01-09T07:16:49;61.55;;;32.33;;
52104;SDS011;38103;42.776;23.112;2023-01-09T07:19:14;58.03;;;33.58;;
52104;SDS011;38103;42.776;23.112;2023-01-09T07:21:40;65.72;;;32.22;;
52104;SDS011;38103;42.776;23.112;2023-01-09T07:24:05;61.78;;;31.35;;
52104;SDS011;38103;42.776;23.112;2023-01-09T07:26:31;58.83;;;29.67;;
52104;SDS011;38103;42.776;23.112;2023-01-09T07:28:56;60.72;;;31.67;;
52104;SDS011;38103;42.776;23.112;2023-01-09T07:31:21;66.40;;;31.58;;
52104;SDS011;38103;42.776;23.112;2023-01-09T07:33:47;80.43;;;42.47;;
52104;SDS011;38103;42.776;23.112;2023-01-09T07:36:12;72.57;;;36.97;;
52104;SDS011;38103;42.776;23.112;2023-01-09T07:38:37;63.17;;;34.75;;
52104;SDS011;38103;42.776;23.112;2023-01-09T07:41:03;67.60;;;34.83;;
52104;SDS011;38103;42.776;23.112;2023-01-09T07:43:29;61.85;;;34.65;;
52104;SDS011;38103;42.776;23.112;2023-01-09T07:45:54;59.42;;;32.35;;
52104;SDS011;38103;42.776;23.112;2023-01-09T07:48:20;62.35;;;33.40;;
52104;SDS011;38103;42.776;23.112;2023-01-09T07:50:45;54.40;;;29.83;;
52104;SDS011;38103;42.776;23.112;2023-01-09T07:53:10;54.60;;;28.50;;
52104;SDS011;38103;42.776;23.112;2023-01-09T07:55:36;51.55;;;28.08;;
52104;SDS011;38103;42.776;23.112;2023-01-09T07:58:01;50.95;;;28.58;;
52104;SDS011;38103;42.776;23.112;2023-01-09T08:00:27;56.70;;;29.98;;
52104;SDS011;38103;42.776;23.112;2023-01-09T08:02:52;57.83;;;30.80;;
52104;SDS011;38103;42.776;23.112;2023-01-09T08:05:18;54.67;;;30.77;;
52104;SDS011;38103;42.776;23.112;2023-01-09T08:07:44;58.45;;;31.00;;
52104;SDS011;38103;42.776;23.112;2023-01-09T08:10:10;61.03;;;31.27;;
52104;SDS011;38103;42.776;23.112;2023-01-09T08:12:36;56.80;;;31.80;;
52104;SDS011;38103;42.776;23.112;2023-01-09T08:15:01;57.97;;;31.73;;
52104;SDS011;38103;42.776;23.112;2023-01-09T08:17:26;61.63;;;33.92;;
52104;SDS011;38103;42.776;23.112;2023-01-09T08:19:52;58.00;;;32.67;;
52104;SDS011;38103;42.776;23.112;2023-01-09T08:22:17;57.83;;;31.00;;
52104;SDS011;38103;42.776;23.112;2023-01-09T08:24:43;50.08;;;28.67;;
52104;SDS011;38103;42.776;23.112;2023-01-09T08:27:08;56.28;;;28.13;;
52104;SDS011;38103;42.776;23.112;2023-01-09T08:29:34;55.22;;;29.90;;
52104;SDS011;38103;42.776;23.112;2023-01-09T08:31:59;52.20;;;27.00;;
52104;SDS011;38103;42.776;23.112;2023-01-09T08:34:25;51.63;;;28.65;;
52104;SDS011;38103;42.776;23.112;2023-01-09T08:36:50;51.53;;;27.48;;
52104;SDS011;38103;42.776;23.112;2023-01-09T08:39:17;59.20;;;28.27;;
52104;SDS011;38103;42.776;23.112;2023-01-09T08:41:42;53.60;;;27.25;;
52104;SDS011;38103;42.776;23.112;2023-01-09T08:44:26;59.55;;;29.10;;
52104;SDS011;38103;42.776;23.112;2023-01-09T08:49:37;53.60;;;27.98;;
52104;SDS011;38103;42.776;23.112;2023-01-09T08:52:03;55.45;;;29.20;;
52104;SDS011;38103;42.776;23.112;2023-01-09T08:54:29;60.65;;;29.20;;
52104;SDS011;38103;42.776;23.112;2023-01-09T08:56:55;52.55;;;29.42;;
52104;SDS011;38103;42.776;23.112;2023-01-09T08:59:20;70.45;;;32.63;;
52104;SDS011;38103;42.776;23.112;2023-01-09T09:01:46;55.20;;;30.23;;
52104;SDS011;38103;42.776;23.112;2023-01-09T09:04:11;61.35;;;32.72;;
52104;SDS011;38103;42.776;23.112;2023-01-09T09:06:37;56.53;;;31.63;;
52104;SDS011;38103;42.776;23.112;2023-01-09T09:09:02;67.93;;;34.33;;
52104;SDS011;38103;42.776;23.112;2023-01-09T09:11:31;63.20;;;33.65;;
52104;SDS011;38103;42.776;23.112;2023-01-09T09:13:57;60.13;;;33.97;;
52104;SDS011;38103;42.776;23.112;2023-01-09T09:16:23;65.82;;;33.42;;
52104;SDS011;38103;42.776;23.112;2023-01-09T09:18:49;57.13;;;32.08;;
52104;SDS011;38103;42.776;23.112;2023-01-09T09:21:15;60.45;;;32.03;;
52104;SDS011;38103;42.776;23.112;2023-01-09T09:23:40;54.88;;;30.92;;
52104;SDS011;38103;42.776;23.112;2023-01-09T09:26:05;58.80;;;32.47;;
52104;SDS011;38103;42.776;23.112;2023-01-09T09:28:31;55.40;;;30.80;;
52104;SDS011;38103;42.776;23.112;2023-01-09T09:30:56;57.63;;;30.20;;
52104;SDS011;38103;42.776;23.112;2023-01-09T09:33:21;59.30;;;29.65;;
52104;SDS011;38103;42.776;23.112;2023-01-09T09:35:47;50.60;;;26.85;;
52104;SDS011;38103;42.776;23.112;2023-01-09T09:38:12;55.90;;;27.70;;
52104;SDS011;38103;42.776;23.112;2023-01-09T09:40:42;51.08;;;26.70;;
52104;SDS011;38103;42.776;23.112;2023-01-09T09:49:11;57.20;;;28.48;;
52104;SDS011;38103;42.776;23.112;2023-01-09T09:54:27;53.17;;;28.23;;
52104;SDS011;38103;42.776;23.112;2023-01-09T09:56:58;53.08;;;28.70;;
52104;SDS011;38103;42.776;23.112;2023-01-09T09:59:30;53.80;;;27.98;;
52104;SDS011;38103;42.776;23.112;2023-01-09T10:02:12;47.13;;;24.48;;
52104;SDS011;38103;42.776;23.112;2023-01-09T10:04:45;46.63;;;25.02;;
52104;SDS011;38103;42.776;23.112;2023-01-09T10:07:18;48.40;;;23.08;;
52104;SDS011;38103;42.776;23.112;2023-01-09T10:09:47;44.60;;;22.90;;
52104;SDS011;38103;42.776;23.112;2023-01-09T10:12:23;46.95;;;23.83;;
52104;SDS011;38103;42.776;23.112;2023-01-09T10:14:52;45.00;;;24.98;;
52104;SDS011;38103;42.776;23.112;2023-01-09T10:18:03;46.70;;;24.08;;
52104;SDS011;38103;42.776;23.112;2023-01-09T10:26:45;48.38;;;28.05;;
52104;SDS011;38103;42.776;23.112;2023-01-09T10:34:37;52.78;;;26.00;;
52104;SDS011;38103;42.776;23.112;2023-01-09T10:37:41;49.63;;;24.15;;
52104;SDS011;38103;42.776;23.112;2023-01-09T10:40:27;50.47;;;27.42;;
52104;SDS011;38103;42.776;23.112;2023-01-09T10:42:58;53.20;;;27.13;;
52104;SDS011;38103;42.776;23.112;2023-01-09T10:45:29;51.45;;;24.88;;
52104;SDS011;38103;42.776;23.112;2023-01-09T10:48:10;46.80;;;26.45;;
52104;SDS011;38103;42.776;23.112;2023-01-09T10:50:48;51.80;;;25.63;;
52104;SDS011;38103;42.776;23.112;2023-01-09T10:53:19;49.92;;;26.67;;
52104;SDS011;38103;42.776;23.112;2023-01-09T10:55:47;44.30;;;23.75;;
52104;SDS011;38103;42.776;23.112;2023-01-09T10:58:19;48.70;;;25.65;;
52104;SDS011;38103;42.776;23.112;2023-01-09T11:00:46;43.88;;;22.95;;
52104;SDS011;38103;42.776;23.112;2023-01-09T11:03:14;50.17;;;24.85;;
52104;SDS011;38103;42.776;23.112;2023-01-09T11:05:41;50.92;;;27.38;;
52104;SDS011;38103;42.776;23.112;2023-01-09T11:13:18;52.63;;;25.13;;
52104;SDS011;38103;42.776;23.112;2023-01-09T11:15:44;55.90;;;26.48;;
52104;SDS011;38103;42.776;23.112;2023-01-09T11:18:17;44.67;;;24.02;;
52104;SDS011;38103;42.776;23.112;2023-01-09T11:20:45;48.42;;;26.05;;
52104;SDS011;38103;42.776;23.112;2023-01-09T11:23:21;49.67;;;25.67;;
52104;SDS011;38103;42.776;23.112;2023-01-09T11:25:53;48.50;;;24.40;;
52104;SDS011;38103;42.776;23.112;2023-01-09T11:28:20;49.15;;;24.23;;
52104;SDS011;38103;42.776;23.112;2023-01-09T11:33:24;49.88;;;24.00;;
52104;SDS011;38103;42.776;23.112;2023-01-09T11:35:55;43.15;;;23.42;;
52104;SDS011;38103;42.776;23.112;2023-01-09T11:38:21;50.08;;;23.00;;
52104;SDS011;38103;42.776;23.112;2023-01-09T11:40:48;45.00;;;22.75;;
52104;SDS011;38103;42.776;23.112;2023-01-09T11:45:57;47.33;;;21.92;;
52104;SDS011;38103;42.776;23.112;2023-01-09T11:50:54;38.70;;;20.75;;
52104;SDS011;38103;42.776;23.112;2023-01-09T11:53:21;40.08;;;20.60;;
52104;SDS011;38103;42.776;23.112;2023-01-09T11:55:51;37.50;;;19.70;;
52104;SDS011;38103;42.776;23.112;2023-01-09T11:58:26;39.13;;;20.17;;
52104;SDS011;38103;42.776;23.112;2023-01-09T12:06:19;42.47;;;18.98;;
52104;SDS011;38103;42.776;23.112;2023-01-09T12:08:55;36.78;;;18.73;;
52104;SDS011;38103;42.776;23.112;2023-01-09T12:11:27;38.08;;;17.15;;
52104;SDS011;38103;42.776;23.112;2023-01-09T12:19:23;36.97;;;17.92;;
52104;SDS011;38103;42.776;23.112;2023-01-09T12:35:31;33.08;;;17.23;;
52104;SDS011;38103;42.776;23.112;2023-01-09T12:40:57;35.83;;;16.45;;
52104;SDS011;38103;42.776;23.112;2023-01-09T12:43:40;31.77;;;16.85;;
52104;SDS011;38103;42.776;23.112;2023-01-09T12:46:18;31.98;;;15.93;;
52104;SDS011;38103;42.776;23.112;2023-01-09T12:48:55;33.05;;;16.45;;
52104;SDS011;38103;42.776;23.112;2023-01-09T12:51:40;35.63;;;16.75;;
52104;SDS011;38103;42.776;23.112;2023-01-09T12:54:14;34.80;;;18.60;;
52104;SDS011;38103;42.776;23.112;2023-01-09T12:56:46;34.25;;;16.15;;
52104;SDS011;38103;42.776;23.112;2023-01-09T12:59:49;30.48;;;15.65;;
52104;SDS011;38103;42.776;23.112;2023-01-09T13:04:53;29.65;;;14.35;;
52104;SDS011;38103;42.776;23.112;2023-01-09T13:07:23;31.02;;;15.15;;
52104;SDS011;38103;42.776;23.112;2023-01-09T13:12:47;31.13;;;15.30;;
52104;SDS011;38103;42.776;23.112;2023-01-09T13:18:03;36.03;;;18.70;;
52104;SDS011;38103;42.776;23.112;2023-01-09T13:20:37;38.00;;;17.17;;
52104;SDS011;38103;42.776;23.112;2023-01-09T13:23:09;38.83;;;17.48;;
52104;SDS011;38103;42.776;23.112;2023-01-09T13:25:46;34.92;;;18.45;;
52104;SDS011;38103;42.776;23.112;2023-01-09T13:33:29;35.20;;;17.83;;
52104;SDS011;38103;42.776;23.112;2023-01-09T13:35:59;34.17;;;18.20;;
52104;SDS011;38103;42.776;23.112;2023-01-09T13:38:28;35.90;;;17.77;;
52104;SDS011;38103;42.776;23.112;2023-01-09T13:43:56;33.00;;;16.13;;
52104;SDS011;38103;42.776;23.112;2023-01-09T13:46:34;32.42;;;17.30;;
52104;SDS011;38103;42.776;23.112;2023-01-09T13:49:04;34.00;;;17.08;;
52104;SDS011;38103;42.776;23.112;2023-01-09T13:54:08;31.55;;;16.08;;
52104;SDS011;38103;42.776;23.112;2023-01-09T13:57:15;30.33;;;15.00;;
52104;SDS011;38103;42.776;23.112;2023-01-09T13:59:58;33.22;;;15.38;;
52104;SDS011;38103;42.776;23.112;2023-01-09T14:05:11;33.38;;;16.25;;
52104;SDS011;38103;42.776;23.112;2023-01-09T14:12:43;32.00;;;15.30;;
52104;SDS011;38103;42.776;23.112;2023-01-09T14:17:47;33.05;;;15.75;;
52104;SDS011;38103;42.776;23.112;2023-01-09T14:20:24;34.45;;;16.30;;
52104;SDS011;38103;42.776;23.112;2023-01-09T14:22:58;35.00;;;16.08;;
52104;SDS011;38103;42.776;23.112;2023-01-09T14:25:25;34.35;;;17.92;;
52104;SDS011;38103;42.776;23.112;2023-01-09T14:40:45;35.25;;;15.43;;
52104;SDS011;38103;42.776;23.112;2023-01-09T14:43:18;33.83;;;17.17;;
52104;SDS011;38103;42.776;23.112;2023-01-09T14:45:48;31.33;;;15.25;;
52104;SDS011;38103;42.776;23.112;2023-01-09T14:48:14;41.67;;;17.15;;
52104;SDS011;38103;42.776;23.112;2023-01-09T14:50:41;36.25;;;16.58;;
52104;SDS011;38103;42.776;23.112;2023-01-09T14:53:15;35.75;;;16.77;;
52104;SDS011;38103;42.776;23.112;2023-01-09T14:55:47;34.63;;;15.68;;
52104;SDS011;38103;42.776;23.112;2023-01-09T15:01:12;39.88;;;18.85;;
52104;SDS011;38103;42.776;23.112;2023-01-09T15:03:43;31.40;;;16.45;;
52104;SDS011;38103;42.776;23.112;2023-01-09T15:06:14;36.40;;;16.58;;
52104;SDS011;38103;42.776;23.112;2023-01-09T15:08:52;35.72;;;17.00;;
52104;SDS011;38103;42.776;23.112;2023-01-09T15:11:22;33.10;;;16.20;;
52104;SDS011;38103;42.776;23.112;2023-01-09T15:13:49;34.90;;;16.05;;
52104;SDS011;38103;42.776;23.112;2023-01-09T15:16:20;35.10;;;16.35;;
52104;SDS011;38103;42.776;23.112;2023-01-09T15:18:49;33.25;;;16.63;;
52104;SDS011;38103;42.776;23.112;2023-01-09T15:21:19;34.38;;;16.98;;
52104;SDS011;38103;42.776;23.112;2023-01-09T15:23:48;33.13;;;16.20;;
52104;SDS011;38103;42.776;23.112;2023-01-09T15:26:24;38.40;;;17.50;;
52104;SDS011;38103;42.776;23.112;2023-01-09T15:28:52;37.72;;;16.75;;
52104;SDS011;38103;42.776;23.112;2023-01-09T15:31:24;36.40;;;17.02;;
52104;SDS011;38103;42.776;23.112;2023-01-09T15:33:50;37.20;;;17.40;;
52104;SDS011;38103;42.776;23.112;2023-01-09T15:36:17;38.03;;;17.13;;
52104;SDS011;38103;42.776;23.112;2023-01-09T15:38:50;37.33;;;17.83;;
52104;SDS011;38103;42.776;23.112;2023-01-09T15:41:23;35.20;;;17.70;;
52104;SDS011;38103;42.776;23.112;2023-01-09T15:47:07;35.58;;;17.25;;
52104;SDS011;38103;42.776;23.112;2023-01-09T15:49:40;39.15;;;16.63;;
52104;SDS011;38103;42.776;23.112;2023-01-09T15:52:08;37.03;;;18.08;;
52104;SDS011;38103;42.776;23.112;2023-01-09T15:54:37;36.47;;;17.48;;
52104;SDS011;38103;42.776;23.112;2023-01-09T15:59:54;39.15;;;17.23;;
52104;SDS011;38103;42.776;23.112;2023-01-09T16:02:41;36.83;;;17.95;;
52104;SDS011;38103;42.776;23.112;2023-01-09T16:05:26;42.95;;;18.35;;
52104;SDS011;38103;42.776;23.112;2023-01-09T16:07:55;41.92;;;18.55;;
52104;SDS011;38103;42.776;23.112;2023-01-09T16:12:53;38.42;;;18.90;;
52104;SDS011;38103;42.776;23.112;2023-01-09T16:15:18;37.78;;;17.90;;
52104;SDS011;38103;42.776;23.112;2023-01-09T16:20:59;41.38;;;19.80;;
52104;SDS011;38103;42.776;23.112;2023-01-09T16:26:00;44.13;;;20.30;;
52104;SDS011;38103;42.776;23.112;2023-01-09T16:28:43;47.20;;;20.35;;
52104;SDS011;38103;42.776;23.112;2023-01-09T16:31:27;51.45;;;21.65;;
52104;SDS011;38103;42.776;23.112;2023-01-09T16:33:58;43.92;;;20.00;;
52104;SDS011;38103;42.776;23.112;2023-01-09T16:36:30;45.42;;;20.65;;
52104;SDS011;38103;42.776;23.112;2023-01-09T16:38:58;41.30;;;19.85;;
52104;SDS011;38103;42.776;23.112;2023-01-09T16:41:25;44.47;;;20.52;;
52104;SDS011;38103;42.776;23.112;2023-01-09T16:44:09;41.88;;;19.08;;
52104;SDS011;38103;42.776;23.112;2023-01-09T16:46:38;41.25;;;19.17;;
52104;SDS011;38103;42.776;23.112;2023-01-09T16:49:13;42.42;;;19.38;;
52104;SDS011;38103;42.776;23.112;2023-01-09T16:51:42;45.13;;;19.70;;